createdAt,value
2022-09-17T00:01:29.655Z,101369.53
2022-09-17T00:04:02.289Z,101355.69
2022-09-17T00:06:28.964Z,101367.09
2022-09-17T00:08:55.623Z,101368.09
2022-09-17T00:11:26.229Z,101369.97
2022-09-17T00:13:53.753Z,101380.34
2022-09-17T00:16:29.896Z,101374.94
2022-09-17T00:18:57.689Z,101374.69
2022-09-17T00:21:25.203Z,101378.13
2022-09-17T00:24:01.043Z,101381.84
2022-09-17T00:26:28.976Z,101382.13
2022-09-17T00:28:56.821Z,101373.59
2022-09-17T00:31:24.715Z,101385.16
2022-09-17T00:33:51.841Z,101389.63
2022-09-17T00:36:20.496Z,101393.19
2022-09-17T00:38:55.549Z,101393.25
2022-09-17T00:41:23.319Z,101395.97
2022-09-17T00:43:58.713Z,101405.66
2022-09-17T00:46:35.278Z,101396.13
2022-09-17T00:49:06.252Z,101390.22
2022-09-17T00:52:00.777Z,101398.22
2022-09-17T00:54:28.137Z,101402.69
2022-09-17T00:56:54.936Z,101407.16
2022-09-17T00:59:23.852Z,101406.38
2022-09-17T01:01:51.102Z,101402.13
2022-09-17T01:04:19.466Z,101398.66
2022-09-17T01:07:15.970Z,101405.69
2022-09-17T01:10:08.402Z,101395.47
2022-09-17T01:12:49.112Z,101400.94
2022-09-17T01:15:24.783Z,101398.47
2022-09-17T01:18:12.748Z,101396.69
2022-09-17T01:21:03.753Z,101396.94
2022-09-17T01:23:58.503Z,101406.72
2022-09-17T01:26:50.325Z,101409.44
2022-09-17T01:29:54.525Z,101411.28
2022-09-17T01:32:37.713Z,101413.03
2022-09-17T01:35:26.722Z,101419.28
2022-09-17T01:38:14.994Z,101423.81
2022-09-17T01:40:50.966Z,101429.13
2022-09-17T01:43:26.938Z,101423.97
2022-09-17T01:46:20.525Z,101432.81
2022-09-17T01:48:50.394Z,101425.75
2022-09-17T01:51:24.225Z,101424.06
2022-09-17T01:54:02.001Z,101430.03
2022-09-17T01:56:35.461Z,101427.28
2022-09-17T01:59:14.171Z,101427.13
2022-09-17T02:01:45.707Z,101423.56
2022-09-17T02:04:20.439Z,101425.13
2022-09-17T02:06:56.343Z,101426.88
2022-09-17T02:09:29.694Z,101433.13
2022-09-17T02:12:01.788Z,101434.19
2022-09-17T02:14:35.271Z,101438.66
2022-09-17T02:17:08.127Z,101437.03
2022-09-17T02:19:38.744Z,101448.50
2022-09-17T02:22:33.957Z,101436.50
2022-09-17T02:25:08.427Z,101439.28
2022-09-17T02:27:51.180Z,101441.22
2022-09-17T02:30:17.767Z,101436.97
2022-09-17T02:32:44.683Z,101433.59
2022-09-17T02:35:14.028Z,101432.97
2022-09-17T02:37:45.043Z,101439.28
2022-09-17T02:40:14.146Z,101440.28
2022-09-17T02:42:40.531Z,101438.66
2022-09-17T02:45:33.347Z,101438.84
2022-09-17T02:48:26.029Z,101438.91
2022-09-17T02:51:24.048Z,101441.75
2022-09-17T02:54:12.736Z,101448.91
2022-09-17T02:57:00.542Z,101438.59
2022-09-17T02:59:38.035Z,101448.19
2022-09-17T03:02:17.592Z,101443.19
2022-09-17T03:04:47.346Z,101452.00
2022-09-17T03:07:14.670Z,101456.34
2022-09-17T03:09:43.464Z,101453.72
2022-09-17T03:12:14.037Z,101458.16
2022-09-17T03:14:40.655Z,101453.09
2022-09-17T03:17:07.319Z,101450.56
2022-09-17T03:19:33.801Z,101442.03
2022-09-17T03:22:00.351Z,101441.25
2022-09-17T03:24:27.245Z,101448.00
2022-09-17T03:26:53.977Z,101442.78
2022-09-17T03:29:20.698Z,101446.16
2022-09-17T03:31:47.382Z,101438.34
2022-09-17T03:34:13.886Z,101438.34
2022-09-17T03:36:40.318Z,101433.16
2022-09-17T03:39:06.984Z,101437.66
2022-09-17T03:41:33.524Z,101441.09
2022-09-17T03:44:00.024Z,101440.25
2022-09-17T03:46:26.731Z,101440.41
2022-09-17T03:48:53.203Z,101434.38
2022-09-17T03:51:19.753Z,101438.03
2022-09-17T03:53:46.192Z,101440.00
2022-09-17T03:56:12.777Z,101455.66
2022-09-17T03:58:39.309Z,101453.13
2022-09-17T04:01:05.845Z,101460.09
2022-09-17T04:03:33.132Z,101458.41
2022-09-17T04:05:59.900Z,101457.47
2022-09-17T04:08:26.726Z,101459.06
2022-09-17T04:10:53.381Z,101464.88
2022-09-17T04:13:20.227Z,101469.97
2022-09-17T04:15:47.926Z,101478.75
2022-09-17T04:18:14.959Z,101463.06
2022-09-17T04:20:41.732Z,101463.06
2022-09-17T04:23:11.112Z,101455.09
2022-09-17T04:25:37.747Z,101457.59
2022-09-17T04:28:04.238Z,101458.44
2022-09-17T04:30:30.842Z,101466.28
2022-09-17T04:32:57.452Z,101462.13
2022-09-17T04:35:23.934Z,101470.13
2022-09-17T04:37:57.443Z,101465.97
2022-09-17T04:40:25.439Z,101466.09
2022-09-17T04:42:56.372Z,101461.03
2022-09-17T04:45:23.429Z,101462.09
2022-09-17T04:47:51.128Z,101460.56
2022-09-17T04:50:19.885Z,101469.38
2022-09-17T04:52:46.402Z,101465.97
2022-09-17T04:55:14.134Z,101472.22
2022-09-17T04:57:47.135Z,101467.13
2022-09-17T05:00:15.352Z,101470.78
2022-09-17T05:02:45.823Z,101471.84
2022-09-17T05:05:12.544Z,101471.97
2022-09-17T05:07:39.475Z,101462.59
2022-09-17T05:10:06.802Z,101467.97
2022-09-17T05:12:34.559Z,101471.63
2022-09-17T05:15:01.339Z,101470.84
2022-09-17T05:17:27.779Z,101474.28
2022-09-17T05:19:54.360Z,101474.38
2022-09-17T05:22:22.225Z,101481.28
2022-09-17T05:24:49.526Z,101483.84
2022-09-17T05:27:15.952Z,101484.69
2022-09-17T05:29:42.528Z,101482.78
2022-09-17T05:32:09.334Z,101493.22
2022-09-17T05:34:35.738Z,101489.63
2022-09-17T05:37:02.185Z,101498.06
2022-09-17T05:39:29.041Z,101492.84
2022-09-17T05:41:55.912Z,101490.06
2022-09-17T05:44:26.070Z,101495.97
2022-09-17T05:46:54.678Z,101501.06
2022-09-17T05:49:21.305Z,101504.16
2022-09-17T05:51:49.854Z,101511.16
2022-09-17T05:54:16.545Z,101519.31
2022-09-17T05:56:43.019Z,101522.69
2022-09-17T05:59:10.154Z,101512.63
2022-09-17T06:01:36.653Z,101512.16
2022-09-17T06:04:04.579Z,101508.06
2022-09-17T06:06:31.219Z,101507.38
2022-09-17T06:09:00.785Z,101509.88
2022-09-17T06:11:27.611Z,101517.38
2022-09-17T06:13:55.122Z,101513.56
2022-09-17T06:16:23.038Z,101508.88
2022-09-17T06:18:55.307Z,101514.69
2022-09-17T06:21:23.001Z,101519.50
2022-09-17T06:23:50.894Z,101526.94
2022-09-17T06:26:18.563Z,101530.03
2022-09-17T06:28:45.283Z,101520.34
2022-09-17T06:31:13.278Z,101521.72
2022-09-17T06:33:42.639Z,101519.84
2022-09-17T06:36:14.095Z,101516.56
2022-09-17T06:38:41.487Z,101513.06
2022-09-17T06:41:08.173Z,101510.28
2022-09-17T06:43:34.888Z,101519.84
2022-09-17T06:46:07.519Z,101523.50
2022-09-17T06:48:35.217Z,101524.97
2022-09-17T06:51:03.890Z,101528.88
2022-09-17T06:53:31.336Z,101532.59
2022-09-17T06:56:03.639Z,101528.38
2022-09-17T06:58:33.891Z,101533.28
2022-09-17T07:01:05.001Z,101537.34
2022-09-17T07:03:31.832Z,101541.53
2022-09-17T07:05:58.624Z,101535.44
2022-09-17T07:08:26.181Z,101531.59
2022-09-17T07:10:56.541Z,101535.38
2022-09-17T07:13:23.590Z,101536.03
2022-09-17T07:15:58.427Z,101534.69
2022-09-17T07:18:25.877Z,101529.63
2022-09-17T07:20:56.749Z,101524.38
2022-09-17T07:23:50.680Z,101526.44
2022-09-17T07:26:17.251Z,101521.19
2022-09-17T07:28:44.291Z,101519.13
2022-09-17T07:31:16.080Z,101517.94
2022-09-17T07:33:43.648Z,101511.84
2022-09-17T07:36:15.626Z,101521.13
2022-09-17T07:38:42.135Z,101525.72
2022-09-17T07:41:21.976Z,101522.56
2022-09-17T07:43:48.490Z,101530.97
2022-09-17T07:46:19.712Z,101524.47
2022-09-17T07:48:47.848Z,101528.59
2022-09-17T07:51:19.504Z,101533.72
2022-09-17T07:53:46.695Z,101529.91
2022-09-17T07:56:13.473Z,101541.09
2022-09-17T07:58:39.996Z,101535.91
2022-09-17T08:01:08.881Z,101529.91
2022-09-17T08:03:36.740Z,101532.16
2022-09-17T08:06:12.363Z,101535.69
2022-09-17T08:08:40.042Z,101549.84
2022-09-17T08:11:08.290Z,101537.41
2022-09-17T08:13:35.455Z,101541.34
2022-09-17T08:16:06.010Z,101529.47
2022-09-17T08:18:33.531Z,101535.09
2022-09-17T08:21:01.407Z,101532.03
2022-09-17T08:23:29.406Z,101545.97
2022-09-17T08:25:58.189Z,101559.28
2022-09-17T08:28:26.440Z,101541.53
2022-09-17T08:30:54.151Z,101553.06
2022-09-17T08:33:21.486Z,101553.22
2022-09-17T08:35:55.441Z,101549.56
2022-09-17T08:38:22.208Z,101551.78
2022-09-17T08:41:03.227Z,101558.19
2022-09-17T08:43:33.801Z,101548.25
2022-09-17T08:46:01.231Z,101548.56
2022-09-17T08:48:36.811Z,101553.09
2022-09-17T08:51:34.488Z,101548.66
2022-09-17T08:54:07.163Z,101542.00
2022-09-17T08:56:37.167Z,101548.38
2022-09-17T08:59:23.909Z,101552.84
2022-09-17T09:02:00.954Z,101551.44
2022-09-17T09:04:59.868Z,101549.84
2022-09-17T09:07:37.740Z,101546.00
2022-09-17T09:10:12.948Z,101549.41
2022-09-17T09:12:40.561Z,101544.59
2022-09-17T09:15:19.040Z,101547.28
2022-09-17T09:17:47.803Z,101551.00
2022-09-17T09:20:23.613Z,101553.38
2022-09-17T09:22:52.463Z,101552.47
2022-09-17T09:25:45.842Z,101544.38
2022-09-17T09:28:34.961Z,101535.91
2022-09-17T09:31:19.417Z,101540.00
2022-09-17T09:33:48.166Z,101550.41
2022-09-17T09:36:21.466Z,101547.56
2022-09-17T09:39:13.958Z,101549.28
2022-09-17T09:41:45.844Z,101547.97
2022-09-17T09:44:17.268Z,101546.25
2022-09-17T09:47:21.788Z,101554.44
2022-09-17T09:49:57.827Z,101554.72
2022-09-17T09:52:38.423Z,101553.00
2022-09-17T09:55:30.098Z,101555.63
2022-09-17T09:58:11.272Z,101562.56
2022-09-17T10:00:44.281Z,101564.94
2022-09-17T10:03:21.472Z,101583.84
2022-09-17T10:06:00.755Z,101595.28
2022-09-17T10:08:29.663Z,101601.09
2022-09-17T10:11:03.927Z,101601.75
2022-09-17T10:13:33.139Z,101593.88
2022-09-17T10:16:18.640Z,101585.44
2022-09-17T10:18:49.708Z,101585.25
2022-09-17T10:21:37.232Z,101577.47
2022-09-17T10:24:10.143Z,101574.63
2022-09-17T10:26:37.333Z,101576.66
2022-09-17T10:29:11.549Z,101572.31
2022-09-17T10:31:48.499Z,101569.25
2022-09-17T10:34:26.931Z,101570.72
2022-09-17T10:36:56.004Z,101569.47
2022-09-17T10:39:34.628Z,101560.66
2022-09-17T10:42:15.536Z,101566.97
2022-09-17T10:44:56.586Z,101565.66
2022-09-17T10:47:26.626Z,101557.66
2022-09-17T10:50:01.435Z,101546.84
2022-09-17T10:52:37.997Z,101544.81
2022-09-17T10:55:33.540Z,101541.59
2022-09-17T10:58:04.105Z,101537.66
2022-09-17T11:00:37.039Z,101541.22
2022-09-17T11:03:37.866Z,101531.09
2022-09-17T11:06:29.153Z,101523.75
2022-09-17T11:09:20.592Z,101522.25
2022-09-17T11:12:25.463Z,101514.28
2022-09-17T11:15:05.227Z,101519.13
2022-09-17T11:18:12.982Z,101518.56
2022-09-17T11:20:51.013Z,101508.47
2022-09-17T11:23:49.522Z,101510.97
2022-09-17T11:26:29.431Z,101508.69
2022-09-17T11:29:20.550Z,101513.22
2022-09-17T11:32:30.505Z,101503.94
2022-09-17T11:35:15.854Z,101505.38
2022-09-17T11:37:57.728Z,101498.94
2022-09-17T11:40:41.603Z,101509.91
2022-09-17T11:43:39.611Z,101518.78
2022-09-17T11:46:24.801Z,101500.31
2022-09-17T11:49:50.498Z,101515.63
2022-09-17T11:52:25.878Z,101523.06
2022-09-17T11:54:59.934Z,101512.91
2022-09-17T11:57:32.678Z,101520.75
2022-09-17T12:00:01.987Z,101504.53
2022-09-17T12:02:44.447Z,101520.63
2022-09-17T12:05:37.918Z,101528.97
2022-09-17T12:08:18.016Z,101550.00
2022-09-17T12:11:02.918Z,101532.34
2022-09-17T12:13:39.917Z,101532.72
2022-09-17T12:16:28.897Z,101550.97
2022-09-17T12:19:01.342Z,101563.72
2022-09-17T12:21:35.652Z,101576.63
2022-09-17T12:24:12.922Z,101552.63
2022-09-17T12:27:10.954Z,101553.69
2022-09-17T12:30:00.288Z,101550.78
2022-09-17T12:32:41.765Z,101546.72
2022-09-17T12:35:46.482Z,101546.03
2022-09-17T12:38:49.245Z,101541.59
2022-09-17T12:41:37.260Z,101540.94
2022-09-17T12:44:28.573Z,101536.91
2022-09-17T12:47:11.428Z,101531.25
2022-09-17T12:49:49.619Z,101530.97
2022-09-17T12:52:41.192Z,101535.97
2022-09-17T12:55:18.390Z,101530.94
2022-09-17T12:58:02.133Z,101532.91
2022-09-17T13:00:28.674Z,101537.44
2022-09-17T13:03:16.467Z,101557.97
2022-09-17T13:06:20.480Z,101573.66
2022-09-17T13:09:10.690Z,101553.59
2022-09-17T13:11:55.777Z,101551.66
2022-09-17T13:14:27.993Z,101541.66
2022-09-17T13:17:05.440Z,101534.38
2022-09-17T13:19:47.612Z,101530.13
2022-09-17T13:22:19.094Z,101519.63
2022-09-17T13:24:51.959Z,101527.53
2022-09-17T13:27:26.912Z,101524.25
2022-09-17T13:29:57.413Z,101528.34
2022-09-17T13:32:35.508Z,101523.53
2022-09-17T13:35:15.170Z,101524.63
2022-09-17T13:37:44.805Z,101521.44
2022-09-17T13:40:33.533Z,101516.44
2022-09-17T13:43:14.118Z,101512.94
2022-09-17T13:46:07.477Z,101524.91
2022-09-17T13:48:35.083Z,101533.38
2022-09-17T13:51:34.240Z,101542.94
2022-09-17T13:54:13.490Z,101549.34
2022-09-17T13:56:44.472Z,101550.41
2022-09-17T13:59:22.933Z,101546.72
2022-09-17T14:05:57.753Z,101544.44
2022-09-17T14:11:47.630Z,101564.56
2022-09-17T14:14:48.838Z,101553.31
2022-09-17T14:17:52.034Z,101554.50
2022-09-17T14:20:25.367Z,101554.97
2022-09-17T14:23:06.307Z,101557.16
2022-09-17T14:26:17.240Z,101552.06
2022-09-17T14:33:20.009Z,101538.69
2022-09-17T14:36:21.177Z,101554.00
2022-09-17T14:39:33.904Z,101538.91
2022-09-17T14:48:50.421Z,101533.84
2022-09-17T14:52:21.537Z,101548.41
2022-09-17T15:00:10.931Z,101543.00
2022-09-17T15:02:46.627Z,101532.38
2022-09-17T15:05:38.942Z,101536.59
2022-09-17T15:08:10.152Z,101529.88
2022-09-17T15:14:26.793Z,101524.53
2022-09-17T15:16:59.378Z,101527.47
2022-09-17T15:19:44.572Z,101519.78
2022-09-17T15:22:28.154Z,101522.47
2022-09-17T15:25:19.461Z,101531.34
2022-09-17T15:27:47.150Z,101540.72
2022-09-17T15:30:29.659Z,101539.00
2022-09-17T15:33:01.034Z,101538.81
2022-09-17T15:35:32.956Z,101531.38
2022-09-17T15:38:24.232Z,101552.19
2022-09-17T15:40:51.702Z,101551.59
2022-09-17T15:43:30.089Z,101553.97
2022-09-17T15:46:31.790Z,101551.47
2022-09-17T15:49:00.548Z,101553.38
2022-09-17T15:51:28.338Z,101550.84
2022-09-17T15:54:05.311Z,101543.66
2022-09-17T15:56:44.499Z,101556.38
2022-09-17T15:59:28.441Z,101547.97
2022-09-17T16:02:05.633Z,101540.06
2022-09-17T16:04:34.508Z,101541.13
2022-09-17T16:07:16.070Z,101537.84
2022-09-17T16:09:47.908Z,101534.88
2022-09-17T16:12:26.257Z,101540.03
2022-09-17T16:15:01.108Z,101550.25
2022-09-17T16:17:57.330Z,101541.41
2022-09-17T16:20:55.733Z,101537.81
2022-09-17T16:23:29.925Z,101531.50
2022-09-17T16:26:01.114Z,101541.84
2022-09-17T16:29:07.949Z,101540.78
2022-09-17T16:32:06.060Z,101541.44
2022-09-17T16:34:32.744Z,101540.59
2022-09-17T16:36:59.534Z,101541.94
2022-09-17T16:39:27.376Z,101550.25
2022-09-17T16:41:57.893Z,101547.81
2022-09-17T16:44:26.383Z,101555.91
2022-09-17T16:51:06.066Z,101555.38
2022-09-17T16:53:34.904Z,101554.63
2022-09-17T16:56:31.986Z,101572.06
2022-09-17T16:59:03.023Z,101579.16
2022-09-17T17:01:34.709Z,101581.84
2022-09-17T17:04:01.640Z,101583.34
2022-09-17T17:07:19.159Z,101576.72
2022-09-17T17:09:19.782Z,101586.41
2022-09-17T17:11:46.533Z,101587.41
2022-09-17T17:14:14.882Z,101593.03
2022-09-17T17:27:31.969Z,101588.47
2022-09-17T17:34:55.769Z,101584.50
2022-09-17T17:39:48.635Z,101575.72
2022-09-17T17:43:08.250Z,101588.25
2022-09-17T17:51:18.573Z,101584.97
2022-09-17T17:54:49.171Z,101585.31
2022-09-17T18:05:20.096Z,101594.25
2022-09-17T18:10:36.793Z,101605.69
2022-09-17T18:13:21.117Z,101607.47
2022-09-17T18:15:36.468Z,101585.69
2022-09-17T18:16:01.105Z,101617.03
2022-09-17T18:19:55.808Z,101619.72
2022-09-17T18:22:03.301Z,101621.50
2022-09-17T18:24:33.724Z,101622.63
2022-09-17T18:27:08.317Z,101623.06
2022-09-17T18:29:43.572Z,101623.59
2022-09-17T18:32:37.117Z,101627.63
2022-09-17T18:35:52.807Z,101624.59
2022-09-17T18:41:16.969Z,101625.00
2022-09-17T18:45:46.637Z,101624.94
2022-09-17T18:57:29.584Z,101636.44
2022-09-17T19:05:41.289Z,101645.34
2022-09-17T19:08:16.560Z,101644.00
2022-09-17T19:10:59.707Z,101646.03
2022-09-17T19:14:08.639Z,101648.88
2022-09-17T19:16:35.445Z,101640.50
2022-09-17T19:19:05.130Z,101645.16
2022-09-17T19:32:13.923Z,101655.31
2022-09-17T19:35:59.048Z,101652.88
2022-09-17T19:40:08.065Z,101653.19
2022-09-17T19:44:18.633Z,101649.00
2022-09-17T19:47:36.747Z,101650.09
2022-09-17T19:49:43.859Z,101651.13
2022-09-17T19:52:12.924Z,101655.59
2022-09-17T19:55:06.849Z,101652.13
2022-09-17T19:57:41.127Z,101652.81
2022-09-17T20:03:39.621Z,101651.47
2022-09-17T20:06:19.880Z,101648.09
2022-09-17T20:08:57.462Z,101657.81
2022-09-17T20:18:05.373Z,101650.34
2022-09-17T20:21:44.991Z,101643.34
2022-09-17T20:32:52.947Z,101638.41
2022-09-17T20:37:11.838Z,101635.47
2022-09-17T20:39:31.796Z,101641.41
2022-09-17T20:42:26.057Z,101644.88
2022-09-17T20:47:35.023Z,101646.09
2022-09-17T20:50:11.454Z,101646.25
2022-09-17T20:56:14.090Z,101646.50
2022-09-17T20:58:50.086Z,101651.88
2022-09-17T21:01:45.720Z,101654.66
2022-09-17T21:04:34.999Z,101656.44
2022-09-17T21:12:52.142Z,101662.97
2022-09-17T21:15:28.345Z,101669.66
2022-09-17T21:19:12.111Z,101665.22
2022-09-17T21:21:57.584Z,101676.38
2022-09-17T21:27:45.436Z,101670.19
2022-09-17T21:30:17.091Z,101676.28
2022-09-17T21:33:18.079Z,101666.66
2022-09-17T21:35:48.658Z,101666.66
2022-09-17T21:38:16.989Z,101671.03
2022-09-17T21:41:06.398Z,101670.44
2022-09-17T21:47:12.559Z,101681.38
2022-09-17T21:49:46.100Z,101681.38
2022-09-17T21:52:16.976Z,101677.13
2022-09-17T21:57:46.340Z,101672.13
2022-09-17T22:01:51.208Z,101665.81
2022-09-17T22:03:11.349Z,101666.59
2022-09-17T22:11:46.743Z,101672.38
2022-09-17T22:14:22.693Z,101668.91
2022-09-17T22:19:52.971Z,101667.06
2022-09-17T22:22:22.519Z,101657.50
2022-09-17T22:24:51.960Z,101653.97
2022-09-17T22:28:36.056Z,101650.59
2022-09-17T22:53:50.708Z,101661.38
2022-09-17T23:09:13.348Z,101651.03
2022-09-17T23:15:34.521Z,101654.81
2022-09-17T23:24:11.600Z,101671.75
2022-09-17T23:27:17.108Z,101657.75
2022-09-17T23:30:05.021Z,101653.34
2022-09-17T23:35:31.314Z,101657.75
2022-09-17T23:40:46.337Z,101651.63
2022-09-17T23:44:05.062Z,101648.25
2022-09-17T23:49:31.708Z,101636.84
2022-09-17T23:55:22.892Z,101636.09
2022-09-17T23:57:49.691Z,101636.09
